Back to Top

Language: 

My Weather Underground Personal Weather Station Historical Data with Graphs...

Delerius Weather Station Historical Data
Daily Summary for January 14, 2017 Units:  Metric    English   Both
« Previous Day
Next Day »
Daily Weekly Monthly Yearly Custom
  High: Low: Average:
Temperature: 6.9 °C 0.1 °C 3.2 °C
Dew Point: 2.9 °C -4 °C 0.8 °C
Humidity: 92 % 69 % 85 %
Wind Speed: 22.5 km/h 0 km/h 9.2 km/h
Wind Gust: 30.6 km/h - -
Wind:- - WNW
Pressure: 1022.6 hPa 1014.4 hPa -
Precipitation: 0 mm    
Historical Graphs
 
 
Tabular Data for January 14, 2017
Time Temperature Dew Point Pressure Wind Wind Speed Wind Gust Humidity Rainfall Rate (Hourly) solar Conditions
00:00 0.1 °C -4 °C 1015.8 hPa West 9.7 km/h 9.7 km/h 74 % 0 mm 0 W/m2
00:05 0.1 °C -3.8 °C 1015.8 hPa WNW 9.7 km/h 12.9 km/h 75 % 0 mm 0 W/m2
00:15 0.1 °C -3.6 °C 1015.8 hPa WNW 9.7 km/h 12.9 km/h 76 % 0 mm 0 W/m2
00:20 0.2 °C -3.4 °C 1015.8 hPa WNW 9.7 km/h 9.7 km/h 77 % 0 mm 0 W/m2
00:25 0.2 °C -3.4 °C 1015.8 hPa WNW 9.7 km/h 9.7 km/h 77 % 0 mm 0 W/m2
00:30 0.2 °C -3.2 °C 1015.8 hPa WNW 9.7 km/h 9.7 km/h 78 % 0 mm 0 W/m2
00:35 0.2 °C -3.1 °C 1015.8 hPa West 8 km/h 9.7 km/h 79 % 0 mm 0 W/m2
00:40 0.2 °C -2.8 °C 1015.8 hPa West 9.7 km/h 19.3 km/h 80 % 0 mm 0 W/m2
00:45 0.4 °C -2.7 °C 1015.8 hPa West 12.9 km/h 19.3 km/h 80 % 0 mm 0 W/m2
00:55 0.5 °C -2.4 °C 1015.8 hPa WNW 12.9 km/h 14.5 km/h 81 % 0 mm 0 W/m2
01:00 0.6 °C -2.2 °C 1015.8 hPa WNW 12.9 km/h 16.1 km/h 82 % 0 mm 0 W/m2
01:05 0.6 °C -1.9 °C 1015.5 hPa West 11.3 km/h 16.1 km/h 83 % 0 mm 0 W/m2
01:10 0.7 °C -1.8 °C 1015.5 hPa West 8 km/h 8 km/h 83 % 0 mm 0 W/m2
01:15 0.7 °C -1.7 °C 1015.5 hPa West 6.4 km/h 14.5 km/h 84 % 0 mm 0 W/m2
01:20 0.7 °C -1.6 °C 1015.5 hPa WNW 8 km/h 16.1 km/h 85 % 0 mm 0 W/m2
01:25 0.7 °C -1.3 °C 1015.5 hPa WNW 11.3 km/h 16.1 km/h 86 % 0 mm 0 W/m2
01:35 1.1 °C -0.9 °C 1015.1 hPa WNW 14.5 km/h 14.5 km/h 87 % 0 mm 0 W/m2
01:40 1.2 °C -0.6 °C 1015.1 hPa WNW 12.9 km/h 17.7 km/h 88 % 0 mm 0 W/m2
01:45 1.3 °C -0.6 °C 1015.1 hPa NW 14.5 km/h 17.7 km/h 87 % 0 mm 0 W/m2
01:50 1.4 °C -0.3 °C 1015.1 hPa WNW 12.9 km/h 16.1 km/h 88 % 0 mm 0 W/m2
01:55 1.6 °C -0.4 °C 1015.1 hPa WNW 12.9 km/h 16.1 km/h 87 % 0 mm 0 W/m2
02:00 1.7 °C -0.2 °C 1015.1 hPa West 12.9 km/h 30.6 km/h 87 % 0 mm 0 W/m2
02:10 2 °C 0.1 °C 1014.8 hPa West 17.7 km/h 17.7 km/h 87 % 0 mm 0 W/m2
02:15 2.2 °C 0.2 °C 1014.8 hPa WNW 17.7 km/h 19.3 km/h 87 % 0 mm 0 W/m2
02:20 2.3 °C 0.3 °C 1014.8 hPa West 17.7 km/h 17.7 km/h 87 % 0 mm 0 W/m2
02:25 2.3 °C 0.4 °C 1014.8 hPa WNW 14.5 km/h 17.7 km/h 87 % 0 mm 0 W/m2
02:30 2.4 °C 0.4 °C 1014.8 hPa West 11.3 km/h 11.3 km/h 87 % 0 mm 0 W/m2
02:35 2.4 °C 0.4 °C 1014.8 hPa West 12.9 km/h 22.5 km/h 87 % 0 mm 0 W/m2
02:40 2.5 °C 0.6 °C 1014.8 hPa West 17.7 km/h 24.1 km/h 87 % 0 mm 0 W/m2
02:45 2.6 °C 0.6 °C 1014.8 hPa WNW 20.9 km/h 24.1 km/h 87 % 0 mm 0 W/m2
02:55 2.6 °C 0.7 °C 1014.4 hPa West 17.7 km/h 24.1 km/h 87 % 0 mm 0 W/m2
03:00 2.7 °C 0.7 °C 1014.4 hPa West 17.7 km/h 17.7 km/h 87 % 0 mm 0 W/m2
03:05 2.7 °C 0.8 °C 1014.4 hPa West 17.7 km/h 17.7 km/h 87 % 0 mm 0 W/m2
03:10 2.7 °C 0.8 °C 1014.4 hPa WNW 19.3 km/h 20.9 km/h 87 % 0 mm 0 W/m2
03:20 2.7 °C 0.8 °C 1014.8 hPa West 19.3 km/h 22.5 km/h 87 % 0 mm 0 W/m2
03:30 2.7 °C 0.9 °C 1014.8 hPa WNW 22.5 km/h 22.5 km/h 88 % 0 mm 0 W/m2
03:35 2.7 °C 0.9 °C 1014.8 hPa WNW 20.9 km/h 25.7 km/h 88 % 0 mm 0 W/m2
03:40 2.6 °C 0.8 °C 1015.1 hPa West 17.7 km/h 17.7 km/h 88 % 0 mm 0 W/m2
03:45 2.7 °C 1.1 °C 1015.1 hPa WNW 16.1 km/h 17.7 km/h 89 % 0 mm 0 W/m2
03:50 2.7 °C 1.1 °C 1014.8 hPa WNW 16.1 km/h 19.3 km/h 89 % 0 mm 0 W/m2
03:55 2.6 °C 1.1 °C 1014.8 hPa West 14.5 km/h 19.3 km/h 90 % 0 mm 0 W/m2
04:05 2.4 °C 0.9 °C 1014.8 hPa NW 14.5 km/h 19.3 km/h 90 % 0 mm 0 W/m2
04:10 2.4 °C 1.1 °C 1014.8 hPa WNW 14.5 km/h 19.3 km/h 91 % 0 mm 0 W/m2
04:15 2.3 °C 0.8 °C 1015.1 hPa WNW 14.5 km/h 19.3 km/h 90 % 0 mm 0 W/m2
04:20 2.4 °C 1.1 °C 1015.1 hPa WNW 14.5 km/h 16.1 km/h 91 % 0 mm 0 W/m2
04:25 2.4 °C 1.1 °C 1014.8 hPa WNW 14.5 km/h 16.1 km/h 91 % 0 mm 0 W/m2
04:30 2.5 °C 1.2 °C 1014.8 hPa NW 14.5 km/h 22.5 km/h 91 % 0 mm 0 W/m2
04:35 2.6 °C 1.2 °C 1015.1 hPa WNW 14.5 km/h 22.5 km/h 91 % 0 mm 0 W/m2
04:45 2.7 °C 1.2 °C 1015.1 hPa WNW 16.1 km/h 20.9 km/h 90 % 0 mm 0 W/m2
04:50 2.7 °C 1.2 °C 1015.1 hPa WNW 16.1 km/h 16.1 km/h 90 % 0 mm 0 W/m2
04:55 2.7 °C 1.2 °C 1015.1 hPa WNW 16.1 km/h 16.1 km/h 90 % 0 mm 0 W/m2
05:00 2.8 °C 1.3 °C 1015.1 hPa WNW 17.7 km/h 17.7 km/h 90 % 0 mm 0 W/m2
05:05 2.8 °C 1.2 °C 1015.1 hPa NW 17.7 km/h 30.6 km/h 89 % 0 mm 0 W/m2
05:10 2.8 °C 1.2 °C 1015.5 hPa WNW 17.7 km/h 17.7 km/h 89 % 0 mm 0 W/m2
05:15 2.7 °C 0.9 °C 1015.5 hPa West 16.1 km/h 19.3 km/h 88 % 0 mm 0 W/m2
05:25 2.8 °C 1 °C 1015.5 hPa NW 17.7 km/h 17.7 km/h 88 % 0 mm 0 W/m2
05:30 2.8 °C 0.9 °C 1015.5 hPa NW 17.7 km/h 22.5 km/h 87 % 0 mm 0 W/m2
05:35 2.9 °C 0.8 °C 1015.5 hPa WNW 16.1 km/h 22.5 km/h 86 % 0 mm 0 W/m2
05:40 2.9 °C 0.8 °C 1015.5 hPa WNW 14.5 km/h 14.5 km/h 86 % 0 mm 0 W/m2
05:45 2.9 °C 0.8 °C 1015.5 hPa WNW 12.9 km/h 16.1 km/h 86 % 0 mm 0 W/m2
05:50 3 °C 0.9 °C 1015.5 hPa NW 12.9 km/h 16.1 km/h 86 % 0 mm 0 W/m2
06:00 3.1 °C 1 °C 1015.5 hPa WNW 12.9 km/h 16.1 km/h 86 % 0 mm 0 W/m2
06:05 3.2 °C 1.1 °C 1015.5 hPa NW 12.9 km/h 16.1 km/h 86 % 0 mm 0 W/m2
06:10 3.2 °C 1.1 °C 1015.8 hPa NW 12.9 km/h 16.1 km/h 86 % 0 mm 0 W/m2
06:15 3.2 °C 1.1 °C 1015.8 hPa WNW 12.9 km/h 20.9 km/h 86 % 0 mm 0 W/m2
06:20 3.3 °C 1.2 °C 1015.8 hPa WNW 14.5 km/h 14.5 km/h 86 % 0 mm 0 W/m2
06:25 3.3 °C 1.2 °C 1015.8 hPa WNW 14.5 km/h 16.1 km/h 86 % 0 mm 0 W/m2
06:35 3.3 °C 1.2 °C 1015.8 hPa West 12.9 km/h 16.1 km/h 86 % 0 mm 0 W/m2
06:40 3.3 °C 1.2 °C 1015.8 hPa NW 14.5 km/h 16.1 km/h 86 % 0 mm 0 W/m2
06:50 3.4 °C 1.3 °C 1016.1 hPa NNW 11.3 km/h 19.3 km/h 86 % 0 mm 0 W/m2
06:55 3.4 °C 1.3 °C 1016.1 hPa NW 11.3 km/h 19.3 km/h 86 % 0 mm 0 W/m2
07:00 3.4 °C 1.3 °C 1016.1 hPa NNW 9.7 km/h 9.7 km/h 86 % 0 mm 0 W/m2
07:05 3.4 °C 1.3 °C 1016.1 hPa NW 9.7 km/h 16.1 km/h 86 % 0 mm 0 W/m2
07:10 3.4 °C 1.3 °C 1016.1 hPa WNW 9.7 km/h 9.7 km/h 86 % 0 mm 0 W/m2
07:15 3.4 °C 1.3 °C 1016.1 hPa WNW 8 km/h 16.1 km/h 86 % 0 mm 0 W/m2
07:20 3.4 °C 1.3 °C 1016.5 hPa WNW 8 km/h 8 km/h 86 % 0 mm 0 W/m2
07:25 3.3 °C 1.4 °C 1016.5 hPa NW 8 km/h 16.1 km/h 87 % 0 mm 0 W/m2
07:35 3.3 °C 1.4 °C 1016.5 hPa NW 8 km/h 11.3 km/h 87 % 0 mm 0 W/m2
07:40 3.3 °C 1.4 °C 1016.5 hPa WNW 8 km/h 16.1 km/h 87 % 0 mm 0 W/m2
07:45 3.3 °C 1.6 °C 1016.5 hPa WNW 4.8 km/h 16.1 km/h 88 % 0 mm 0 W/m2
07:50 3.3 °C 1.6 °C 1016.5 hPa NW 6.4 km/h 6.4 km/h 88 % 0 mm 0 W/m2
07:55 3.4 °C 1.6 °C 1016.8 hPa WNW 9.7 km/h 9.7 km/h 88 % 0 mm 0 W/m2
08:00 3.4 °C 1.7 °C 1016.8 hPa NW 9.7 km/h 9.7 km/h 88 % 0 mm 0 W/m2
08:05 3.5 °C 1.7 °C 1016.8 hPa NW 8 km/h 16.1 km/h 88 % 0 mm 0 W/m2
08:15 3.5 °C 1.6 °C 1016.8 hPa NW 9.7 km/h 12.9 km/h 87 % 0 mm 0 W/m2
08:20 3.5 °C 1.6 °C 1016.8 hPa NW 9.7 km/h 16.1 km/h 87 % 0 mm 5 W/m2
08:25 3.5 °C 1.6 °C 1017.2 hPa NNW 8 km/h 16.1 km/h 87 % 0 mm 5 W/m2
08:30 3.5 °C 1.6 °C 1017.2 hPa WNW 8 km/h 16.1 km/h 87 % 0 mm 5 W/m2
08:35 3.6 °C 1.4 °C 1017.2 hPa NW 8 km/h 16.1 km/h 86 % 0 mm 7 W/m2
08:40 3.6 °C 1.4 °C 1017.2 hPa NW 8 km/h 16.1 km/h 86 % 0 mm 11 W/m2
08:50 3.6 °C 1.3 °C 1017.2 hPa NW 9.7 km/h 16.1 km/h 85 % 0 mm 18 W/m2
08:55 3.6 °C 1.3 °C 1017.5 hPa NNW 11.3 km/h 16.1 km/h 85 % 0 mm 23 W/m2
09:00 3.6 °C 1.3 °C 1017.5 hPa North 9.7 km/h 9.7 km/h 85 % 0 mm 26 W/m2
09:05 3.6 °C 1.3 °C 1017.5 hPa NW 8 km/h 16.1 km/h 85 % 0 mm 28 W/m2
09:10 3.6 °C 1.3 °C 1017.5 hPa WNW 6.4 km/h 16.1 km/h 85 % 0 mm 35 W/m2
09:15 3.6 °C 1.3 °C 1017.8 hPa NW 6.4 km/h 16.1 km/h 85 % 0 mm 35 W/m2
09:20 3.6 °C 1.3 °C 1017.8 hPa NW 6.4 km/h 16.1 km/h 85 % 0 mm 39 W/m2
09:30 3.6 °C 1.3 °C 1017.8 hPa NNW 4.8 km/h 16.1 km/h 85 % 0 mm 35 W/m2
09:35 3.6 °C 1.3 °C 1018.2 hPa NNW 6.4 km/h 16.1 km/h 85 % 0 mm 37 W/m2
09:40 3.6 °C 1.3 °C 1018.2 hPa NW 6.4 km/h 16.1 km/h 85 % 0 mm 49 W/m2
09:45 3.5 °C 1.4 °C 1018.2 hPa WNW 6.4 km/h 16.1 km/h 86 % 0 mm 70 W/m2
09:50 3.6 °C 1.4 °C 1018.2 hPa WNW 6.4 km/h 6.4 km/h 86 % 0 mm 118 W/m2
09:55 3.6 °C 1.5 °C 1018.2 hPa WNW 4.8 km/h 8 km/h 86 % 0 mm 93 W/m2
10:00 3.7 °C 1.6 °C 1018.2 hPa West 4.8 km/h 16.1 km/h 86 % 0 mm 102 W/m2
10:10 3.9 °C 1.8 °C 1018.2 hPa NW 8 km/h 16.1 km/h 86 % 0 mm 97 W/m2
10:15 4 °C 1.9 °C 1018.2 hPa WNW 8 km/h 16.1 km/h 86 % 0 mm 83 W/m2
10:20 4.1 °C 1.9 °C 1018.2 hPa NW 8 km/h 16.1 km/h 86 % 0 mm 67 W/m2
10:25 4.1 °C 1.8 °C 1018.2 hPa NW 8 km/h 16.1 km/h 85 % 0 mm 58 W/m2
10:30 4.1 °C 1.6 °C 1018.5 hPa NW 9.7 km/h 16.1 km/h 84 % 0 mm 65 W/m2
10:35 4.1 °C 1.6 °C 1018.5 hPa NW 8 km/h 16.1 km/h 84 % 0 mm 114 W/m2
10:40 4.1 °C 1.7 °C 1018.5 hPa NW 6.4 km/h 6.4 km/h 84 % 0 mm 72 W/m2
10:49 4.1 °C 1.4 °C 1018.5 hPa WNW 8 km/h 16.1 km/h 83 % 0 mm 63 W/m2
10:55 4.1 °C 1.5 °C 1018.5 hPa NW 8 km/h 16.1 km/h 83 % 0 mm 243 W/m2
11:00 4.3 °C 1.7 °C 1018.5 hPa NW 8 km/h 16.1 km/h 83 % 0 mm 244 W/m2
11:05 4.6 °C 1.7 °C 1018.5 hPa WNW 8 km/h 17.7 km/h 82 % 0 mm 250 W/m2
11:10 4.8 °C 1.8 °C 1018.5 hPa NW 9.7 km/h 16.1 km/h 81 % 0 mm 253 W/m2
11:15 5 °C 1.8 °C 1018.5 hPa NW 11.3 km/h 16.1 km/h 80 % 0 mm 257 W/m2
11:20 5.1 °C 1.8 °C 1018.8 hPa NW 11.3 km/h 11.3 km/h 79 % 0 mm 260 W/m2
11:25 5.3 °C 2 °C 1018.5 hPa WNW 9.7 km/h 16.1 km/h 79 % 0 mm 264 W/m2
11:35 5.7 °C 1.9 °C 1018.5 hPa WNW 8 km/h 16.1 km/h 77 % 0 mm 267 W/m2
11:40 5.8 °C 1.9 °C 1018.5 hPa NW 8 km/h 8 km/h 76 % 0 mm 269 W/m2
11:45 5.8 °C 1.7 °C 1018.5 hPa NW 9.7 km/h 9.7 km/h 75 % 0 mm 272 W/m2
11:50 5.8 °C 1.7 °C 1018.5 hPa NNW 11.3 km/h 11.3 km/h 75 % 0 mm 274 W/m2
12:00 6.1 °C 2 °C 1018.5 hPa West 9.7 km/h 16.1 km/h 75 % 0 mm 278 W/m2
12:10 6.2 °C 2.1 °C 1018.5 hPa NW 14.5 km/h 17.7 km/h 75 % 0 mm 279 W/m2
12:15 6.2 °C 1.9 °C 1018.5 hPa WNW 12.9 km/h 19.3 km/h 74 % 0 mm 279 W/m2
12:20 6.2 °C 2.1 °C 1018.5 hPa NW 16.1 km/h 16.1 km/h 75 % 0 mm 278 W/m2
12:25 6.2 °C 2.1 °C 1018.5 hPa WNW 14.5 km/h 19.3 km/h 75 % 0 mm 278 W/m2
12:30 6.3 °C 2 °C 1018.8 hPa NW 12.9 km/h 12.9 km/h 74 % 0 mm 276 W/m2
12:35 6.3 °C 2.1 °C 1018.8 hPa WNW 12.9 km/h 16.1 km/h 74 % 0 mm 276 W/m2
12:40 6.5 °C 2.2 °C 1018.8 hPa NW 11.3 km/h 11.3 km/h 74 % 0 mm 274 W/m2
12:50 6.7 °C 2.4 °C 1018.8 hPa West 11.3 km/h 11.3 km/h 74 % 0 mm 272 W/m2
12:55 6.8 °C 2.3 °C 1018.8 hPa West 12.9 km/h 12.9 km/h 73 % 0 mm 299 W/m2
13:00 6.9 °C 2.6 °C 1019.2 hPa WNW 12.9 km/h 12.9 km/h 74 % 0 mm 341 W/m2
13:05 6.9 °C 2.6 °C 1019.2 hPa NW 14.5 km/h 14.5 km/h 74 % 0 mm 278 W/m2
13:10 6.9 °C 2.8 °C 1019.2 hPa NW 12.9 km/h 12.9 km/h 75 % 0 mm 83 W/m2
13:15 6.8 °C 2.7 °C 1019.2 hPa NW 11.3 km/h 16.1 km/h 75 % 0 mm 97 W/m2
13:25 6.5 °C 2.8 °C 1019.2 hPa West 9.7 km/h 16.1 km/h 77 % 0 mm 56 W/m2
13:30 6.3 °C 2.6 °C 1019.2 hPa WNW 9.7 km/h 9.7 km/h 77 % 0 mm 121 W/m2
13:35 6.3 °C 2.6 °C 1019.2 hPa WNW 9.7 km/h 16.1 km/h 77 % 0 mm 220 W/m2
13:40 6.5 °C 2.8 °C 1019.2 hPa WNW 8 km/h 16.1 km/h 77 % 0 mm 258 W/m2
13:45 6.7 °C 2.7 °C 1019.2 hPa WNW 8 km/h 16.1 km/h 76 % 0 mm 281 W/m2
13:50 6.9 °C 2.9 °C 1019.2 hPa NNW 11.3 km/h 16.1 km/h 76 % 0 mm 258 W/m2
13:55 6.9 °C 2.6 °C 1019.2 hPa WNW 12.9 km/h 16.1 km/h 74 % 0 mm 230 W/m2
14:05 6.8 °C 1.9 °C 1019.2 hPa NW 14.5 km/h 14.5 km/h 71 % 0 mm 206 W/m2
14:10 6.7 °C 1.8 °C 1019.2 hPa NW 17.7 km/h 17.7 km/h 71 % 0 mm 197 W/m2
14:15 6.7 °C 1.8 °C 1019.2 hPa WNW 14.5 km/h 17.7 km/h 71 % 0 mm 192 W/m2
14:20 6.7 °C 1.8 °C 1019.2 hPa NW 12.9 km/h 16.1 km/h 71 % 0 mm 179 W/m2
14:25 6.7 °C 2 °C 1019.5 hPa NW 12.9 km/h 16.1 km/h 72 % 0 mm 172 W/m2
14:30 6.6 °C 1.7 °C 1019.5 hPa WNW 16.1 km/h 16.1 km/h 71 % 0 mm 162 W/m2
14:35 6.5 °C 1.4 °C 1019.5 hPa WNW 16.1 km/h 16.1 km/h 70 % 0 mm 153 W/m2
14:45 6.4 °C 1.3 °C 1019.5 hPa WNW 14.5 km/h 24.1 km/h 70 % 0 mm 137 W/m2
14:50 6.3 °C 1.3 °C 1019.5 hPa NW 14.5 km/h 14.5 km/h 70 % 0 mm 132 W/m2
14:55 6.3 °C 1.1 °C 1019.5 hPa WNW 14.5 km/h 17.7 km/h 69 % 0 mm 123 W/m2
15:00 6.3 °C 1 °C 1019.5 hPa West 11.3 km/h 11.3 km/h 69 % 0 mm 76 W/m2
15:05 6.1 °C 0.8 °C 1019.5 hPa NNW 9.7 km/h 16.1 km/h 69 % 0 mm 23 W/m2
15:10 5.8 °C 0.8 °C 1019.9 hPa NW 11.3 km/h 17.7 km/h 70 % 0 mm 23 W/m2
15:15 5.6 °C 0.6 °C 1019.9 hPa WNW 11.3 km/h 17.7 km/h 70 % 0 mm 19 W/m2
15:24 5.2 °C 0.8 °C 1019.9 hPa WNW 11.3 km/h 16.1 km/h 73 % 0 mm 28 W/m2
15:30 5.1 °C 0.8 °C 1020.2 hPa West 11.3 km/h 11.3 km/h 74 % 0 mm 25 W/m2
15:35 5 °C 1.1 °C 1020.2 hPa WNW 11.3 km/h 16.1 km/h 76 % 0 mm 21 W/m2
15:40 4.9 °C 1.2 °C 1020.2 hPa NW 11.3 km/h 16.1 km/h 77 % 0 mm 21 W/m2
15:45 4.8 °C 1.3 °C 1020.2 hPa NW 12.9 km/h 17.7 km/h 78 % 0 mm 19 W/m2
15:50 4.6 °C 1.3 °C 1020.2 hPa NW 12.9 km/h 12.9 km/h 79 % 0 mm 14 W/m2
15:59 4.4 °C 1.4 °C 1020.5 hPa WNW 9.7 km/h 16.1 km/h 81 % 0 mm 9 W/m2
16:05 4.3 °C 1.3 °C 1020.5 hPa WNW 9.7 km/h 16.1 km/h 81 % 0 mm 7 W/m2
16:10 4.2 °C 1.4 °C 1020.5 hPa West 11.3 km/h 11.3 km/h 82 % 0 mm 5 W/m2
16:15 4.1 °C 1.4 °C 1020.9 hPa NW 9.7 km/h 16.1 km/h 83 % 0 mm 5 W/m2
16:20 3.9 °C 1.3 °C 1020.5 hPa WNW 8 km/h 16.1 km/h 83 % 0 mm 0 W/m2
16:25 3.8 °C 1.4 °C 1020.5 hPa WNW 8 km/h 16.1 km/h 84 % 0 mm 0 W/m2
16:30 3.7 °C 1.2 °C 1020.5 hPa WNW 8 km/h 8 km/h 84 % 0 mm 0 W/m2
16:40 3.4 °C 1.2 °C 1020.5 hPa WNW 8 km/h 16.1 km/h 85 % 0 mm 0 W/m2
16:50 3.3 °C 1.2 °C 1020.5 hPa WNW 9.7 km/h 9.7 km/h 86 % 0 mm 0 W/m2
16:55 3.2 °C 1.1 °C 1020.9 hPa WNW 8 km/h 16.1 km/h 86 % 0 mm 0 W/m2
17:00 3.2 °C 1.1 °C 1020.9 hPa WNW 9.7 km/h 9.7 km/h 86 % 0 mm 0 W/m2
17:05 3.2 °C 1.2 °C 1020.9 hPa WNW 9.7 km/h 16.1 km/h 87 % 0 mm 0 W/m2
17:10 3.2 °C 1.2 °C 1020.9 hPa WNW 9.7 km/h 9.7 km/h 87 % 0 mm 0 W/m2
17:15 3.2 °C 1.2 °C 1020.9 hPa NW 9.7 km/h 11.3 km/h 87 % 0 mm 0 W/m2
17:20 3.1 °C 1.2 °C 1020.9 hPa WNW 9.7 km/h 9.7 km/h 87 % 0 mm 0 W/m2
17:25 3.1 °C 1.1 °C 1020.9 hPa NW 8 km/h 16.1 km/h 87 % 0 mm 0 W/m2
17:35 2.9 °C 0.9 °C 1020.9 hPa WNW 8 km/h 16.1 km/h 87 % 0 mm 0 W/m2
17:40 2.8 °C 0.9 °C 1021.2 hPa NW 6.4 km/h 16.1 km/h 87 % 0 mm 0 W/m2
17:45 2.8 °C 0.9 °C 1021.2 hPa WNW 6.4 km/h 16.1 km/h 87 % 0 mm 0 W/m2
17:50 2.8 °C 1.1 °C 1021.2 hPa NW 6.4 km/h 16.1 km/h 88 % 0 mm 0 W/m2
17:55 2.8 °C 1.1 °C 1021.2 hPa NW 4.8 km/h 16.1 km/h 88 % 0 mm 0 W/m2
18:00 2.8 °C 1.1 °C 1021.2 hPa NW 3.2 km/h 16.1 km/h 88 % 0 mm 0 W/m2
18:05 2.8 °C 1 °C 1021.2 hPa NW 3.2 km/h 16.1 km/h 88 % 0 mm 0 W/m2
18:10 2.8 °C 1 °C 1021.2 hPa NNW 3.2 km/h 3.2 km/h 88 % 0 mm 0 W/m2
18:20 2.8 °C 1 °C 1021.6 hPa WNW 4.8 km/h 16.1 km/h 88 % 0 mm 0 W/m2
18:30 2.8 °C 1.2 °C 1021.6 hPa NW 6.4 km/h 16.1 km/h 89 % 0 mm 0 W/m2
18:35 2.7 °C 1.1 °C 1021.6 hPa NW 6.4 km/h 16.1 km/h 89 % 0 mm 0 W/m2
18:40 2.7 °C 1.1 °C 1021.2 hPa NW 4.8 km/h 16.1 km/h 89 % 0 mm 0 W/m2
18:45 2.6 °C 1 °C 1021.2 hPa NW 4.8 km/h 16.1 km/h 89 % 0 mm 0 W/m2
18:50 2.6 °C 0.9 °C 1021.2 hPa NW 4.8 km/h 4.8 km/h 89 % 0 mm 0 W/m2
18:55 2.5 °C 0.9 °C 1021.2 hPa WNW 3.2 km/h 16.1 km/h 89 % 0 mm 0 W/m2
19:00 2.4 °C 0.8 °C 1021.2 hPa WNW 4.8 km/h 16.1 km/h 89 % 0 mm 0 W/m2
19:10 2.3 °C 0.7 °C 1021.6 hPa WNW 6.4 km/h 16.1 km/h 89 % 0 mm 0 W/m2
19:15 2.3 °C 0.7 °C 1021.6 hPa WNW 6.4 km/h 16.1 km/h 89 % 0 mm 0 W/m2
19:20 2.3 °C 0.7 °C 1021.6 hPa WNW 6.4 km/h 6.4 km/h 89 % 0 mm 0 W/m2
19:25 2.2 °C 0.6 °C 1021.6 hPa WNW 4.8 km/h 16.1 km/h 89 % 0 mm 0 W/m2
19:30 2.1 °C 0.4 °C 1021.6 hPa WNW 4.8 km/h 4.8 km/h 89 % 0 mm 0 W/m2
19:35 1.9 °C 0.3 °C 1021.9 hPa WNW 4.8 km/h 9.7 km/h 89 % 0 mm 0 W/m2
19:45 1.8 °C 0.3 °C 1021.9 hPa WNW 6.4 km/h 16.1 km/h 90 % 0 mm 0 W/m2
19:50 1.7 °C 0.3 °C 1021.9 hPa WNW 4.8 km/h 16.1 km/h 90 % 0 mm 0 W/m2
19:55 1.7 °C 0.2 °C 1021.9 hPa WNW 4.8 km/h 16.1 km/h 90 % 0 mm 0 W/m2
20:00 1.6 °C 0.1 °C 1021.9 hPa WNW 4.8 km/h 16.1 km/h 90 % 0 mm 0 W/m2
20:05 1.5 °C 0.1 °C 1021.9 hPa WNW 4.8 km/h 16.1 km/h 90 % 0 mm 0 W/m2
20:10 1.4 °C -0.1 °C 1021.9 hPa WNW 4.8 km/h 16.1 km/h 90 % 0 mm 0 W/m2
20:15 1.4 °C -0.1 °C 1021.9 hPa WNW 4.8 km/h 16.1 km/h 90 % 0 mm 0 W/m2
20:25 1.3 °C 0 °C 1022.2 hPa WNW 1.6 km/h 16.1 km/h 91 % 0 mm 0 W/m2
20:30 1.3 °C -0.1 °C 1022.2 hPa WNW 1.6 km/h 1.6 km/h 90 % 0 mm 0 W/m2
20:35 1.3 °C -0.1 °C 1022.2 hPa WNW 1.6 km/h 16.1 km/h 91 % 0 mm 0 W/m2
20:40 1.2 °C -0.2 °C 1022.2 hPa Calm   16.1 km/h 90 % 0 mm 0 W/m2
20:45 1.2 °C -0.2 °C 1022.2 hPa Calm   16.1 km/h 91 % 0 mm 0 W/m2
20:50 1.1 °C -0.2 °C 1022.2 hPa WNW 1.6 km/h 16.1 km/h 91 % 0 mm 0 W/m2
21:00 1.1 °C -0.2 °C 1022.2 hPa WNW 1.6 km/h 1.6 km/h 91 % 0 mm 0 W/m2
21:05 1.2 °C 0 °C 1022.2 hPa WNW 1.6 km/h 16.1 km/h 92 % 0 mm 0 W/m2
21:10 1.3 °C 0.1 °C 1022.2 hPa Calm   16.1 km/h 92 % 0 mm 0 W/m2
21:15 1.3 °C 0.2 °C 1022.2 hPa WNW 1.6 km/h 16.1 km/h 92 % 0 mm 0 W/m2
21:20 1.3 °C 0.2 °C 1022.2 hPa WNW 1.6 km/h 16.1 km/h 92 % 0 mm 0 W/m2
21:25 1.4 °C 0.1 °C 1022.2 hPa WNW 1.6 km/h 16.1 km/h 91 % 0 mm 0 W/m2
21:30 1.3 °C 0 °C 1022.2 hPa WNW 1.6 km/h 1.6 km/h 91 % 0 mm 0 W/m2
21:40 1.2 °C -0.1 °C 1022.6 hPa Calm   16.1 km/h 91 % 0 mm 0 W/m2
21:45 1.2 °C -0.2 °C 1022.6 hPa Calm   16.1 km/h 91 % 0 mm 0 W/m2
21:50 1.2 °C 0.1 °C 1022.2 hPa NW 1.6 km/h 16.1 km/h 92 % 0 mm 0 W/m2
21:55 1.4 °C 0.2 °C 1022.2 hPa NW 1.6 km/h 16.1 km/h 92 % 0 mm 0 W/m2
22:00 1.5 °C 0.3 °C 1022.6 hPa NNW 3.2 km/h 16.1 km/h 92 % 0 mm 0 W/m2
22:05 1.7 °C 0.5 °C 1022.6 hPa NNW 1.6 km/h 16.1 km/h 92 % 0 mm 0 W/m2
22:15 1.5 °C 0.1 °C 1022.6 hPa Calm   16.1 km/h 90 % 0 mm 0 W/m2
22:20 1.5 °C 0.2 °C 1022.6 hPa Calm   16.1 km/h 91 % 0 mm 0 W/m2
22:25 1.6 °C 0.2 °C 1022.6 hPa Calm   16.1 km/h 91 % 0 mm 0 W/m2
22:30 1.4 °C 0 °C 1022.6 hPa Calm   16.1 km/h 90 % 0 mm 0 W/m2
22:35 1.4 °C -0.1 °C 1022.6 hPa Calm   16.1 km/h 90 % 0 mm 0 W/m2
22:40 1.3 °C -0.1 °C 1022.6 hPa Calm   16.1 km/h 91 % 0 mm 0 W/m2
22:45 1.3 °C -0.1 °C 1022.6 hPa Calm   16.1 km/h 91 % 0 mm 0 W/m2
22:55 1.3 °C -0.1 °C 1022.6 hPa Calm   16.1 km/h 91 % 0 mm 0 W/m2
23:00 1.3 °C -0.1 °C 1022.6 hPa Calm   16.1 km/h 91 % 0 mm 0 W/m2
23:05 1.3 °C 0.1 °C 1022.6 hPa Calm   16.1 km/h 92 % 0 mm 0 W/m2
23:10 1.3 °C -0.1 °C 1022.6 hPa Calm   16.1 km/h 91 % 0 mm 0 W/m2
23:15 1.3 °C 0.2 °C 1022.6 hPa Calm   16.1 km/h 92 % 0 mm 0 W/m2
23:20 1.4 °C 0.2 °C 1022.6 hPa Calm   16.1 km/h 92 % 0 mm 0 W/m2
23:25 1.4 °C 0.2 °C 1022.6 hPa Calm   16.1 km/h 92 % 0 mm 0 W/m2
23:30 1.4 °C 0.3 °C 1022.6 hPa Calm   16.1 km/h 92 % 0 mm 0 W/m2
23:40 1.5 °C 0.3 °C 1022.6 hPa Calm   16.1 km/h 92 % 0 mm 0 W/m2
23:45 1.5 °C 0.3 °C 1022.6 hPa Calm   16.1 km/h 92 % 0 mm 0 W/m2
23:50 1.5 °C 0.3 °C 1022.6 hPa Calm   16.1 km/h 92 % 0 mm 0 W/m2
23:55 1.5 °C 0.3 °C 1022.6 hPa Calm   16.1 km/h 92 % 0 mm 0 W/m2
Delerius-Weather
Compliments of Weather Underground - 2 mb

Data updates at regular intervals.